sensor_id;sensor_type;location;lat;lon;timestamp;P1;durP1;ratioP1;P2;durP2;ratioP2
51862;SDS011;37900;52.996;6.278;2023-08-30T00:00:41;2.65;;;1.90;;
51862;SDS011;37900;52.996;6.278;2023-08-30T00:03:07;3.85;;;2.10;;
51862;SDS011;37900;52.996;6.278;2023-08-30T00:05:33;1.90;;;1.67;;
51862;SDS011;37900;52.996;6.278;2023-08-30T00:07:58;2.67;;;2.28;;
51862;SDS011;37900;52.996;6.278;2023-08-30T00:10:24;3.78;;;2.03;;
51862;SDS011;37900;52.996;6.278;2023-08-30T00:12:50;3.00;;;2.13;;
51862;SDS011;37900;52.996;6.278;2023-08-30T00:15:15;3.38;;;2.08;;
51862;SDS011;37900;52.996;6.278;2023-08-30T00:17:41;4.03;;;1.90;;
51862;SDS011;37900;52.996;6.278;2023-08-30T00:20:07;2.75;;;2.08;;
51862;SDS011;37900;52.996;6.278;2023-08-30T00:22:34;2.90;;;2.07;;
51862;SDS011;37900;52.996;6.278;2023-08-30T00:25:01;4.43;;;2.22;;
51862;SDS011;37900;52.996;6.278;2023-08-30T00:27:27;2.50;;;2.00;;
51862;SDS011;37900;52.996;6.278;2023-08-30T00:29:52;2.47;;;1.92;;
51862;SDS011;37900;52.996;6.278;2023-08-30T00:32:18;2.30;;;1.98;;
51862;SDS011;37900;52.996;6.278;2023-08-30T00:34:44;2.92;;;1.75;;
51862;SDS011;37900;52.996;6.278;2023-08-30T00:37:10;2.90;;;2.00;;
51862;SDS011;37900;52.996;6.278;2023-08-30T00:39:38;3.80;;;1.90;;
51862;SDS011;37900;52.996;6.278;2023-08-30T00:42:05;2.38;;;1.83;;
51862;SDS011;37900;52.996;6.278;2023-08-30T00:44:32;3.08;;;1.80;;
51862;SDS011;37900;52.996;6.278;2023-08-30T00:46:59;2.00;;;1.60;;
51862;SDS011;37900;52.996;6.278;2023-08-30T00:49:29;2.10;;;1.90;;
51862;SDS011;37900;52.996;6.278;2023-08-30T00:54:22;4.10;;;2.08;;
51862;SDS011;37900;52.996;6.278;2023-08-30T00:56:48;4.35;;;2.20;;
51862;SDS011;37900;52.996;6.278;2023-08-30T00:59:15;2.97;;;2.20;;
51862;SDS011;37900;52.996;6.278;2023-08-30T01:01:41;2.45;;;2.08;;
51862;SDS011;37900;52.996;6.278;2023-08-30T01:04:08;3.17;;;1.85;;
51862;SDS011;37900;52.996;6.278;2023-08-30T01:06:33;3.55;;;2.10;;
51862;SDS011;37900;52.996;6.278;2023-08-30T01:09:00;3.83;;;2.00;;
51862;SDS011;37900;52.996;6.278;2023-08-30T01:14:01;2.03;;;1.75;;
51862;SDS011;37900;52.996;6.278;2023-08-30T01:16:32;2.55;;;1.77;;
51862;SDS011;37900;52.996;6.278;2023-08-30T01:19:00;2.25;;;1.70;;
51862;SDS011;37900;52.996;6.278;2023-08-30T01:21:56;2.10;;;1.90;;
51862;SDS011;37900;52.996;6.278;2023-08-30T01:24:32;2.60;;;2.03;;
51862;SDS011;37900;52.996;6.278;2023-08-30T01:27:10;2.45;;;1.90;;
51862;SDS011;37900;52.996;6.278;2023-08-30T01:29:37;2.70;;;2.05;;
51862;SDS011;37900;52.996;6.278;2023-08-30T01:32:06;2.70;;;1.90;;
51862;SDS011;37900;52.996;6.278;2023-08-30T01:34:34;2.85;;;1.70;;
51862;SDS011;37900;52.996;6.278;2023-08-30T01:37:02;2.22;;;1.95;;
51862;SDS011;37900;52.996;6.278;2023-08-30T01:39:31;2.05;;;1.77;;
51862;SDS011;37900;52.996;6.278;2023-08-30T01:41:58;2.28;;;1.92;;
51862;SDS011;37900;52.996;6.278;2023-08-30T01:44:29;2.60;;;1.80;;
51862;SDS011;37900;52.996;6.278;2023-08-30T01:46:56;2.72;;;1.90;;
51862;SDS011;37900;52.996;6.278;2023-08-30T01:49:23;2.47;;;1.98;;
51862;SDS011;37900;52.996;6.278;2023-08-30T01:51:56;2.10;;;1.80;;
51862;SDS011;37900;52.996;6.278;2023-08-30T01:54:23;2.73;;;1.90;;
51862;SDS011;37900;52.996;6.278;2023-08-30T01:56:50;2.10;;;1.85;;
51862;SDS011;37900;52.996;6.278;2023-08-30T01:59:16;2.15;;;1.73;;
51862;SDS011;37900;52.996;6.278;2023-08-30T02:01:41;3.95;;;1.98;;
51862;SDS011;37900;52.996;6.278;2023-08-30T02:04:07;1.95;;;1.77;;
51862;SDS011;37900;52.996;6.278;2023-08-30T02:06:35;2.40;;;1.83;;
51862;SDS011;37900;52.996;6.278;2023-08-30T02:09:10;2.30;;;1.70;;
51862;SDS011;37900;52.996;6.278;2023-08-30T02:11:50;3.72;;;2.10;;
51862;SDS011;37900;52.996;6.278;2023-08-30T02:14:17;2.53;;;1.80;;
51862;SDS011;37900;52.996;6.278;2023-08-30T02:16:45;2.58;;;1.95;;
51862;SDS011;37900;52.996;6.278;2023-08-30T02:19:12;2.10;;;1.70;;
51862;SDS011;37900;52.996;6.278;2023-08-30T02:21:42;4.32;;;2.25;;
51862;SDS011;37900;52.996;6.278;2023-08-30T02:24:08;2.67;;;1.70;;
51862;SDS011;37900;52.996;6.278;2023-08-30T02:26:34;2.22;;;1.70;;
51862;SDS011;37900;52.996;6.278;2023-08-30T02:29:00;2.83;;;1.65;;
51862;SDS011;37900;52.996;6.278;2023-08-30T02:31:25;2.05;;;1.75;;
51862;SDS011;37900;52.996;6.278;2023-08-30T02:33:51;2.15;;;1.88;;
51862;SDS011;37900;52.996;6.278;2023-08-30T02:36:17;2.83;;;1.80;;
51862;SDS011;37900;52.996;6.278;2023-08-30T02:38:43;2.20;;;1.65;;
51862;SDS011;37900;52.996;6.278;2023-08-30T02:41:08;3.30;;;2.30;;
51862;SDS011;37900;52.996;6.278;2023-08-30T02:43:35;2.13;;;1.87;;
51862;SDS011;37900;52.996;6.278;2023-08-30T02:46:01;1.85;;;1.70;;
51862;SDS011;37900;52.996;6.278;2023-08-30T02:48:28;1.92;;;1.70;;
51862;SDS011;37900;52.996;6.278;2023-08-30T02:50:54;3.00;;;1.80;;
51862;SDS011;37900;52.996;6.278;2023-08-30T02:53:20;2.65;;;1.80;;
51862;SDS011;37900;52.996;6.278;2023-08-30T02:55:46;2.13;;;1.88;;
51862;SDS011;37900;52.996;6.278;2023-08-30T02:58:15;2.42;;;1.90;;
51862;SDS011;37900;52.996;6.278;2023-08-30T03:00:41;2.88;;;1.60;;
51862;SDS011;37900;52.996;6.278;2023-08-30T03:03:06;2.70;;;1.98;;
51862;SDS011;37900;52.996;6.278;2023-08-30T03:05:32;2.15;;;1.80;;
51862;SDS011;37900;52.996;6.278;2023-08-30T03:07:58;3.05;;;1.85;;
51862;SDS011;37900;52.996;6.278;2023-08-30T03:10:24;2.72;;;1.65;;
51862;SDS011;37900;52.996;6.278;2023-08-30T03:12:49;2.83;;;1.75;;
51862;SDS011;37900;52.996;6.278;2023-08-30T03:15:15;3.33;;;2.00;;
51862;SDS011;37900;52.996;6.278;2023-08-30T03:17:41;2.47;;;2.13;;
51862;SDS011;37900;52.996;6.278;2023-08-30T03:20:07;3.63;;;1.90;;
51862;SDS011;37900;52.996;6.278;2023-08-30T03:22:33;2.42;;;1.80;;
51862;SDS011;37900;52.996;6.278;2023-08-30T03:24:59;1.88;;;1.45;;
51862;SDS011;37900;52.996;6.278;2023-08-30T03:27:28;2.30;;;1.63;;
51862;SDS011;37900;52.996;6.278;2023-08-30T03:29:54;2.30;;;1.80;;
51862;SDS011;37900;52.996;6.278;2023-08-30T03:32:20;2.60;;;1.75;;
51862;SDS011;37900;52.996;6.278;2023-08-30T03:34:46;2.70;;;1.80;;
51862;SDS011;37900;52.996;6.278;2023-08-30T03:37:16;2.40;;;2.20;;
51862;SDS011;37900;52.996;6.278;2023-08-30T03:39:42;1.92;;;1.70;;
51862;SDS011;37900;52.996;6.278;2023-08-30T03:42:08;2.10;;;1.60;;
51862;SDS011;37900;52.996;6.278;2023-08-30T03:44:34;2.20;;;1.80;;
51862;SDS011;37900;52.996;6.278;2023-08-30T03:47:00;2.53;;;1.80;;
51862;SDS011;37900;52.996;6.278;2023-08-30T03:49:26;2.13;;;1.80;;
51862;SDS011;37900;52.996;6.278;2023-08-30T03:51:52;1.45;;;1.35;;
51862;SDS011;37900;52.996;6.278;2023-08-30T03:54:17;1.92;;;1.60;;
51862;SDS011;37900;52.996;6.278;2023-08-30T03:56:43;2.03;;;1.80;;
51862;SDS011;37900;52.996;6.278;2023-08-30T03:59:10;2.05;;;1.80;;
51862;SDS011;37900;52.996;6.278;2023-08-30T04:01:36;2.13;;;1.60;;
51862;SDS011;37900;52.996;6.278;2023-08-30T04:04:02;1.95;;;1.63;;
51862;SDS011;37900;52.996;6.278;2023-08-30T04:06:28;5.25;;;1.98;;
51862;SDS011;37900;52.996;6.278;2023-08-30T04:08:53;2.20;;;1.70;;
51862;SDS011;37900;52.996;6.278;2023-08-30T04:11:19;3.25;;;2.00;;
51862;SDS011;37900;52.996;6.278;2023-08-30T04:13:45;2.10;;;1.90;;
51862;SDS011;37900;52.996;6.278;2023-08-30T04:16:11;2.53;;;1.98;;
51862;SDS011;37900;52.996;6.278;2023-08-30T04:18:36;1.95;;;1.52;;
51862;SDS011;37900;52.996;6.278;2023-08-30T04:21:02;2.15;;;1.67;;
51862;SDS011;37900;52.996;6.278;2023-08-30T04:23:29;3.10;;;2.05;;
51862;SDS011;37900;52.996;6.278;2023-08-30T04:25:55;1.67;;;1.58;;
51862;SDS011;37900;52.996;6.278;2023-08-30T04:28:21;2.10;;;1.58;;
51862;SDS011;37900;52.996;6.278;2023-08-30T04:30:46;1.80;;;1.50;;
51862;SDS011;37900;52.996;6.278;2023-08-30T04:33:13;2.20;;;1.60;;
51862;SDS011;37900;52.996;6.278;2023-08-30T04:35:38;2.20;;;2.00;;
51862;SDS011;37900;52.996;6.278;2023-08-30T04:38:04;2.00;;;1.50;;
51862;SDS011;37900;52.996;6.278;2023-08-30T04:40:31;1.90;;;1.45;;
51862;SDS011;37900;52.996;6.278;2023-08-30T04:42:58;2.88;;;1.85;;
51862;SDS011;37900;52.996;6.278;2023-08-30T04:45:24;2.40;;;1.60;;
51862;SDS011;37900;52.996;6.278;2023-08-30T04:47:50;2.42;;;1.85;;
51862;SDS011;37900;52.996;6.278;2023-08-30T04:50:15;3.08;;;1.75;;
51862;SDS011;37900;52.996;6.278;2023-08-30T04:52:42;1.77;;;1.30;;
51862;SDS011;37900;52.996;6.278;2023-08-30T04:55:08;2.20;;;1.95;;
51862;SDS011;37900;52.996;6.278;2023-08-30T04:57:34;1.42;;;1.20;;
51862;SDS011;37900;52.996;6.278;2023-08-30T05:00:00;2.38;;;1.55;;
51862;SDS011;37900;52.996;6.278;2023-08-30T05:02:29;2.30;;;1.77;;
51862;SDS011;37900;52.996;6.278;2023-08-30T05:04:56;2.28;;;1.60;;
51862;SDS011;37900;52.996;6.278;2023-08-30T05:07:22;2.28;;;1.73;;
51862;SDS011;37900;52.996;6.278;2023-08-30T05:09:48;2.40;;;1.50;;
51862;SDS011;37900;52.996;6.278;2023-08-30T05:12:13;2.00;;;1.63;;
51862;SDS011;37900;52.996;6.278;2023-08-30T05:14:39;1.88;;;1.58;;
51862;SDS011;37900;52.996;6.278;2023-08-30T05:17:06;2.05;;;1.88;;
51862;SDS011;37900;52.996;6.278;2023-08-30T05:19:32;2.08;;;1.63;;
51862;SDS011;37900;52.996;6.278;2023-08-30T05:21:58;2.05;;;1.60;;
51862;SDS011;37900;52.996;6.278;2023-08-30T05:24:24;2.65;;;1.88;;
51862;SDS011;37900;52.996;6.278;2023-08-30T05:26:51;2.15;;;1.50;;
51862;SDS011;37900;52.996;6.278;2023-08-30T05:29:17;2.25;;;1.77;;
51862;SDS011;37900;52.996;6.278;2023-08-30T05:31:43;2.45;;;1.70;;
51862;SDS011;37900;52.996;6.278;2023-08-30T05:34:09;2.15;;;1.50;;
51862;SDS011;37900;52.996;6.278;2023-08-30T05:36:35;2.17;;;1.40;;
51862;SDS011;37900;52.996;6.278;2023-08-30T05:39:01;1.92;;;1.60;;
51862;SDS011;37900;52.996;6.278;2023-08-30T05:41:28;1.92;;;1.50;;
51862;SDS011;37900;52.996;6.278;2023-08-30T05:43:54;2.45;;;1.77;;
51862;SDS011;37900;52.996;6.278;2023-08-30T05:46:20;2.67;;;1.67;;
51862;SDS011;37900;52.996;6.278;2023-08-30T05:48:46;1.98;;;1.50;;
51862;SDS011;37900;52.996;6.278;2023-08-30T05:51:12;1.98;;;1.60;;
51862;SDS011;37900;52.996;6.278;2023-08-30T05:53:37;2.85;;;1.70;;
51862;SDS011;37900;52.996;6.278;2023-08-30T05:56:03;2.42;;;1.40;;
51862;SDS011;37900;52.996;6.278;2023-08-30T05:58:29;1.55;;;1.45;;
51862;SDS011;37900;52.996;6.278;2023-08-30T06:00:56;3.05;;;1.90;;
51862;SDS011;37900;52.996;6.278;2023-08-30T06:03:22;2.75;;;1.90;;
51862;SDS011;37900;52.996;6.278;2023-08-30T06:05:48;2.75;;;1.52;;
51862;SDS011;37900;52.996;6.278;2023-08-30T06:08:14;2.05;;;1.70;;
51862;SDS011;37900;52.996;6.278;2023-08-30T06:10:40;2.00;;;1.80;;
51862;SDS011;37900;52.996;6.278;2023-08-30T06:13:06;1.60;;;1.50;;
51862;SDS011;37900;52.996;6.278;2023-08-30T06:15:32;2.40;;;1.52;;
51862;SDS011;37900;52.996;6.278;2023-08-30T06:17:58;1.77;;;1.37;;
51862;SDS011;37900;52.996;6.278;2023-08-30T06:20:24;4.15;;;1.52;;
51862;SDS011;37900;52.996;6.278;2023-08-30T06:22:50;2.03;;;1.73;;
51862;SDS011;37900;52.996;6.278;2023-08-30T06:25:15;1.85;;;1.60;;
51862;SDS011;37900;52.996;6.278;2023-08-30T06:27:42;2.03;;;1.58;;
51862;SDS011;37900;52.996;6.278;2023-08-30T06:30:20;1.83;;;1.52;;
51862;SDS011;37900;52.996;6.278;2023-08-30T06:32:46;2.03;;;1.52;;
51862;SDS011;37900;52.996;6.278;2023-08-30T06:35:12;2.13;;;1.70;;
51862;SDS011;37900;52.996;6.278;2023-08-30T06:37:37;2.20;;;1.60;;
51862;SDS011;37900;52.996;6.278;2023-08-30T06:40:03;2.00;;;1.77;;
51862;SDS011;37900;52.996;6.278;2023-08-30T06:42:29;2.63;;;1.95;;
51862;SDS011;37900;52.996;6.278;2023-08-30T06:44:55;1.88;;;1.40;;
51862;SDS011;37900;52.996;6.278;2023-08-30T06:47:21;2.63;;;1.77;;
51862;SDS011;37900;52.996;6.278;2023-08-30T06:49:47;2.17;;;1.90;;
51862;SDS011;37900;52.996;6.278;2023-08-30T06:52:12;2.63;;;1.85;;
51862;SDS011;37900;52.996;6.278;2023-08-30T06:54:38;2.47;;;2.03;;
51862;SDS011;37900;52.996;6.278;2023-08-30T06:57:04;2.22;;;1.67;;
51862;SDS011;37900;52.996;6.278;2023-08-30T06:59:32;2.05;;;1.70;;
51862;SDS011;37900;52.996;6.278;2023-08-30T07:01:57;2.60;;;1.98;;
51862;SDS011;37900;52.996;6.278;2023-08-30T07:04:23;1.70;;;1.60;;
51862;SDS011;37900;52.996;6.278;2023-08-30T07:06:49;1.85;;;1.70;;
51862;SDS011;37900;52.996;6.278;2023-08-30T07:09:16;1.80;;;1.58;;
51862;SDS011;37900;52.996;6.278;2023-08-30T07:11:42;2.38;;;1.85;;
51862;SDS011;37900;52.996;6.278;2023-08-30T07:14:12;2.22;;;1.70;;
51862;SDS011;37900;52.996;6.278;2023-08-30T07:16:39;2.00;;;1.83;;
51862;SDS011;37900;52.996;6.278;2023-08-30T07:19:05;2.42;;;2.20;;
51862;SDS011;37900;52.996;6.278;2023-08-30T07:21:31;2.45;;;1.85;;
51862;SDS011;37900;52.996;6.278;2023-08-30T07:23:58;3.05;;;1.92;;
51862;SDS011;37900;52.996;6.278;2023-08-30T07:26:23;2.65;;;2.00;;
51862;SDS011;37900;52.996;6.278;2023-08-30T07:28:49;3.47;;;2.15;;
51862;SDS011;37900;52.996;6.278;2023-08-30T07:31:15;3.00;;;2.15;;
51862;SDS011;37900;52.996;6.278;2023-08-30T07:33:43;3.28;;;2.00;;
51862;SDS011;37900;52.996;6.278;2023-08-30T07:36:10;4.45;;;2.17;;
51862;SDS011;37900;52.996;6.278;2023-08-30T07:38:37;3.47;;;1.95;;
51862;SDS011;37900;52.996;6.278;2023-08-30T07:41:02;2.03;;;1.83;;
51862;SDS011;37900;52.996;6.278;2023-08-30T07:43:29;3.03;;;2.22;;
51862;SDS011;37900;52.996;6.278;2023-08-30T07:45:55;2.42;;;2.10;;
51862;SDS011;37900;52.996;6.278;2023-08-30T07:48:21;3.05;;;2.47;;
51862;SDS011;37900;52.996;6.278;2023-08-30T07:50:47;3.03;;;2.67;;
51862;SDS011;37900;52.996;6.278;2023-08-30T07:53:13;4.00;;;2.65;;
51862;SDS011;37900;52.996;6.278;2023-08-30T07:55:38;4.95;;;3.10;;
51862;SDS011;37900;52.996;6.278;2023-08-30T07:58:05;4.13;;;2.78;;
51862;SDS011;37900;52.996;6.278;2023-08-30T08:00:31;5.22;;;2.70;;
51862;SDS011;37900;52.996;6.278;2023-08-30T08:02:57;3.95;;;3.03;;
51862;SDS011;37900;52.996;6.278;2023-08-30T08:05:22;3.42;;;2.90;;
51862;SDS011;37900;52.996;6.278;2023-08-30T08:07:51;4.22;;;3.13;;
51862;SDS011;37900;52.996;6.278;2023-08-30T08:10:18;3.05;;;2.60;;
51862;SDS011;37900;52.996;6.278;2023-08-30T08:12:44;2.60;;;2.30;;
51862;SDS011;37900;52.996;6.278;2023-08-30T08:15:10;3.58;;;2.67;;
51862;SDS011;37900;52.996;6.278;2023-08-30T08:17:36;7.53;;;4.03;;
51862;SDS011;37900;52.996;6.278;2023-08-30T08:20:02;6.95;;;4.13;;
51862;SDS011;37900;52.996;6.278;2023-08-30T08:22:29;6.47;;;3.90;;
51862;SDS011;37900;52.996;6.278;2023-08-30T08:24:55;8.20;;;4.30;;
51862;SDS011;37900;52.996;6.278;2023-08-30T08:27:22;4.75;;;3.35;;
51862;SDS011;37900;52.996;6.278;2023-08-30T08:29:49;5.72;;;3.78;;
51862;SDS011;37900;52.996;6.278;2023-08-30T08:32:16;5.00;;;3.20;;
51862;SDS011;37900;52.996;6.278;2023-08-30T08:34:42;6.47;;;3.33;;
51862;SDS011;37900;52.996;6.278;2023-08-30T08:37:08;4.75;;;3.00;;
51862;SDS011;37900;52.996;6.278;2023-08-30T08:39:33;3.78;;;3.05;;
51862;SDS011;37900;52.996;6.278;2023-08-30T08:41:59;6.47;;;3.30;;
51862;SDS011;37900;52.996;6.278;2023-08-30T08:44:26;4.30;;;3.08;;
51862;SDS011;37900;52.996;6.278;2023-08-30T08:46:56;4.95;;;2.92;;
51862;SDS011;37900;52.996;6.278;2023-08-30T08:49:24;5.47;;;3.33;;
51862;SDS011;37900;52.996;6.278;2023-08-30T08:51:53;6.47;;;3.17;;
51862;SDS011;37900;52.996;6.278;2023-08-30T08:54:19;5.83;;;3.30;;
51862;SDS011;37900;52.996;6.278;2023-08-30T08:56:45;6.75;;;3.28;;
51862;SDS011;37900;52.996;6.278;2023-08-30T08:59:11;3.60;;;3.00;;
51862;SDS011;37900;52.996;6.278;2023-08-30T09:01:38;4.60;;;3.38;;
51862;SDS011;37900;52.996;6.278;2023-08-30T09:04:08;4.60;;;3.08;;
51862;SDS011;37900;52.996;6.278;2023-08-30T09:09:01;5.10;;;3.15;;
51862;SDS011;37900;52.996;6.278;2023-08-30T09:11:29;4.93;;;2.78;;
51862;SDS011;37900;52.996;6.278;2023-08-30T09:13:54;6.20;;;2.90;;
51862;SDS011;37900;52.996;6.278;2023-08-30T09:16:20;4.93;;;3.05;;
51862;SDS011;37900;52.996;6.278;2023-08-30T09:18:56;5.78;;;3.30;;
51862;SDS011;37900;52.996;6.278;2023-08-30T09:21:23;6.07;;;2.87;;
51862;SDS011;37900;52.996;6.278;2023-08-30T09:23:56;5.45;;;3.03;;
51862;SDS011;37900;52.996;6.278;2023-08-30T09:26:23;5.78;;;2.80;;
51862;SDS011;37900;52.996;6.278;2023-08-30T09:28:49;4.57;;;3.30;;
51862;SDS011;37900;52.996;6.278;2023-08-30T09:31:18;4.07;;;2.80;;
51862;SDS011;37900;52.996;6.278;2023-08-30T09:33:47;4.40;;;3.05;;
51862;SDS011;37900;52.996;6.278;2023-08-30T09:36:15;5.18;;;2.95;;
51862;SDS011;37900;52.996;6.278;2023-08-30T09:38:47;4.15;;;3.17;;
51862;SDS011;37900;52.996;6.278;2023-08-30T09:41:14;4.57;;;3.35;;
51862;SDS011;37900;52.996;6.278;2023-08-30T09:43:43;6.47;;;3.47;;
51862;SDS011;37900;52.996;6.278;2023-08-30T09:46:09;4.50;;;3.20;;
51862;SDS011;37900;52.996;6.278;2023-08-30T09:48:35;4.43;;;3.42;;
51862;SDS011;37900;52.996;6.278;2023-08-30T09:51:02;4.07;;;2.78;;
51862;SDS011;37900;52.996;6.278;2023-08-30T09:53:29;4.93;;;3.60;;
51862;SDS011;37900;52.996;6.278;2023-08-30T09:55:59;4.10;;;3.22;;
51862;SDS011;37900;52.996;6.278;2023-08-30T09:58:26;4.22;;;2.92;;
51862;SDS011;37900;52.996;6.278;2023-08-30T10:00:53;4.00;;;3.10;;
51862;SDS011;37900;52.996;6.278;2023-08-30T10:03:19;4.20;;;2.60;;
51862;SDS011;37900;52.996;6.278;2023-08-30T10:05:45;4.75;;;3.35;;
51862;SDS011;37900;52.996;6.278;2023-08-30T10:08:12;3.83;;;2.70;;
51862;SDS011;37900;52.996;6.278;2023-08-30T10:10:39;4.07;;;3.08;;
51862;SDS011;37900;52.996;6.278;2023-08-30T10:13:05;4.18;;;3.20;;
51862;SDS011;37900;52.996;6.278;2023-08-30T10:15:33;5.07;;;3.10;;
51862;SDS011;37900;52.996;6.278;2023-08-30T10:18:01;3.95;;;2.60;;
51862;SDS011;37900;52.996;6.278;2023-08-30T10:20:28;4.18;;;2.72;;
51862;SDS011;37900;52.996;6.278;2023-08-30T10:22:54;3.92;;;2.58;;
51862;SDS011;37900;52.996;6.278;2023-08-30T10:25:24;7.07;;;3.25;;
51862;SDS011;37900;52.996;6.278;2023-08-30T10:27:53;5.22;;;3.17;;
51862;SDS011;37900;52.996;6.278;2023-08-30T10:30:20;4.07;;;2.88;;
51862;SDS011;37900;52.996;6.278;2023-08-30T10:32:47;3.78;;;2.70;;
51862;SDS011;37900;52.996;6.278;2023-08-30T10:35:14;3.83;;;3.17;;
51862;SDS011;37900;52.996;6.278;2023-08-30T10:37:41;5.22;;;3.20;;
51862;SDS011;37900;52.996;6.278;2023-08-30T10:40:07;5.60;;;2.50;;
51862;SDS011;37900;52.996;6.278;2023-08-30T10:42:34;4.23;;;2.53;;
51862;SDS011;37900;52.996;6.278;2023-08-30T10:45:13;4.28;;;2.60;;
51862;SDS011;37900;52.996;6.278;2023-08-30T10:47:39;3.35;;;2.50;;
51862;SDS011;37900;52.996;6.278;2023-08-30T10:50:06;4.10;;;2.55;;
51862;SDS011;37900;52.996;6.278;2023-08-30T10:52:33;5.78;;;3.10;;
51862;SDS011;37900;52.996;6.278;2023-08-30T10:57:35;4.75;;;2.70;;
51862;SDS011;37900;52.996;6.278;2023-08-30T11:02:47;3.72;;;2.80;;
51862;SDS011;37900;52.996;6.278;2023-08-30T11:05:21;3.40;;;2.40;;
51862;SDS011;37900;52.996;6.278;2023-08-30T11:07:48;3.42;;;2.65;;
51862;SDS011;37900;52.996;6.278;2023-08-30T11:12:42;4.32;;;2.95;;
51862;SDS011;37900;52.996;6.278;2023-08-30T11:15:09;3.92;;;2.72;;
51862;SDS011;37900;52.996;6.278;2023-08-30T11:17:38;4.78;;;2.58;;
51862;SDS011;37900;52.996;6.278;2023-08-30T11:20:05;4.20;;;2.70;;
51862;SDS011;37900;52.996;6.278;2023-08-30T11:22:45;4.47;;;3.03;;
51862;SDS011;37900;52.996;6.278;2023-08-30T11:25:12;3.95;;;2.80;;
51862;SDS011;37900;52.996;6.278;2023-08-30T11:27:50;5.20;;;2.88;;
51862;SDS011;37900;52.996;6.278;2023-08-30T11:30:30;4.53;;;2.58;;
51862;SDS011;37900;52.996;6.278;2023-08-30T11:32:57;3.50;;;2.70;;
51862;SDS011;37900;52.996;6.278;2023-08-30T11:35:23;3.55;;;2.90;;
51862;SDS011;37900;52.996;6.278;2023-08-30T11:37:49;3.67;;;2.72;;
51862;SDS011;37900;52.996;6.278;2023-08-30T11:40:16;3.85;;;2.70;;
51862;SDS011;37900;52.996;6.278;2023-08-30T11:42:42;3.00;;;2.43;;
51862;SDS011;37900;52.996;6.278;2023-08-30T11:45:08;3.45;;;2.70;;
51862;SDS011;37900;52.996;6.278;2023-08-30T11:47:35;5.70;;;2.83;;
51862;SDS011;37900;52.996;6.278;2023-08-30T11:50:01;3.67;;;2.60;;
51862;SDS011;37900;52.996;6.278;2023-08-30T11:52:27;4.43;;;2.90;;
51862;SDS011;37900;52.996;6.278;2023-08-30T11:54:53;3.40;;;2.58;;
51862;SDS011;37900;52.996;6.278;2023-08-30T11:57:20;4.22;;;2.33;;
51862;SDS011;37900;52.996;6.278;2023-08-30T11:59:46;2.83;;;2.10;;
51862;SDS011;37900;52.996;6.278;2023-08-30T12:02:13;3.25;;;2.40;;
51862;SDS011;37900;52.996;6.278;2023-08-30T12:04:43;4.35;;;2.33;;
51862;SDS011;37900;52.996;6.278;2023-08-30T12:07:20;2.70;;;2.03;;
51862;SDS011;37900;52.996;6.278;2023-08-30T12:09:47;4.57;;;2.30;;
51862;SDS011;37900;52.996;6.278;2023-08-30T12:12:13;4.22;;;2.30;;
51862;SDS011;37900;52.996;6.278;2023-08-30T12:14:40;3.28;;;2.20;;
51862;SDS011;37900;52.996;6.278;2023-08-30T12:17:05;2.88;;;2.33;;
51862;SDS011;37900;52.996;6.278;2023-08-30T12:19:33;2.95;;;2.13;;
51862;SDS011;37900;52.996;6.278;2023-08-30T12:22:03;3.88;;;2.30;;
51862;SDS011;37900;52.996;6.278;2023-08-30T12:24:45;3.60;;;2.25;;
51862;SDS011;37900;52.996;6.278;2023-08-30T12:27:12;2.72;;;2.47;;
51862;SDS011;37900;52.996;6.278;2023-08-30T12:29:38;3.20;;;2.10;;
51862;SDS011;37900;52.996;6.278;2023-08-30T12:32:05;2.80;;;2.30;;
51862;SDS011;37900;52.996;6.278;2023-08-30T12:34:32;2.90;;;2.00;;
51862;SDS011;37900;52.996;6.278;2023-08-30T12:36:57;3.80;;;2.20;;
51862;SDS011;37900;52.996;6.278;2023-08-30T12:39:23;3.22;;;2.10;;
51862;SDS011;37900;52.996;6.278;2023-08-30T12:41:49;3.97;;;2.10;;
51862;SDS011;37900;52.996;6.278;2023-08-30T12:44:15;3.85;;;2.17;;
51862;SDS011;37900;52.996;6.278;2023-08-30T12:46:41;3.40;;;2.13;;
51862;SDS011;37900;52.996;6.278;2023-08-30T12:49:07;3.00;;;2.00;;
51862;SDS011;37900;52.996;6.278;2023-08-30T12:51:32;3.17;;;2.30;;
51862;SDS011;37900;52.996;6.278;2023-08-30T12:53:58;2.42;;;1.95;;
51862;SDS011;37900;52.996;6.278;2023-08-30T12:56:24;3.10;;;2.00;;
51862;SDS011;37900;52.996;6.278;2023-08-30T12:58:49;2.28;;;2.00;;
51862;SDS011;37900;52.996;6.278;2023-08-30T13:01:16;3.53;;;2.15;;
51862;SDS011;37900;52.996;6.278;2023-08-30T13:03:43;2.80;;;1.90;;
51862;SDS011;37900;52.996;6.278;2023-08-30T13:06:09;3.08;;;2.00;;
51862;SDS011;37900;52.996;6.278;2023-08-30T13:08:35;2.35;;;1.80;;
51862;SDS011;37900;52.996;6.278;2023-08-30T13:11:01;3.58;;;2.00;;
51862;SDS011;37900;52.996;6.278;2023-08-30T13:13:26;2.50;;;1.90;;
51862;SDS011;37900;52.996;6.278;2023-08-30T13:15:52;2.70;;;1.85;;
51862;SDS011;37900;52.996;6.278;2023-08-30T13:18:21;3.08;;;2.03;;
51862;SDS011;37900;52.996;6.278;2023-08-30T13:20:46;2.22;;;1.95;;
51862;SDS011;37900;52.996;6.278;2023-08-30T13:23:12;2.60;;;2.15;;
51862;SDS011;37900;52.996;6.278;2023-08-30T13:25:41;7.95;;;2.75;;
51862;SDS011;37900;52.996;6.278;2023-08-30T13:28:07;3.15;;;2.05;;
51862;SDS011;37900;52.996;6.278;2023-08-30T13:30:33;2.78;;;2.30;;
51862;SDS011;37900;52.996;6.278;2023-08-30T13:33:06;2.60;;;2.03;;
51862;SDS011;37900;52.996;6.278;2023-08-30T13:35:33;2.65;;;2.05;;
51862;SDS011;37900;52.996;6.278;2023-08-30T13:37:58;3.72;;;2.08;;
51862;SDS011;37900;52.996;6.278;2023-08-30T13:40:24;2.63;;;2.10;;
51862;SDS011;37900;52.996;6.278;2023-08-30T13:42:50;3.15;;;2.05;;
51862;SDS011;37900;52.996;6.278;2023-08-30T13:45:16;2.28;;;1.90;;
51862;SDS011;37900;52.996;6.278;2023-08-30T13:47:42;2.08;;;1.70;;
51862;SDS011;37900;52.996;6.278;2023-08-30T13:50:09;2.83;;;2.13;;
51862;SDS011;37900;52.996;6.278;2023-08-30T13:52:36;3.05;;;1.65;;
51862;SDS011;37900;52.996;6.278;2023-08-30T13:55:01;2.78;;;2.10;;
51862;SDS011;37900;52.996;6.278;2023-08-30T13:57:27;2.70;;;2.10;;
51862;SDS011;37900;52.996;6.278;2023-08-30T13:59:53;2.42;;;2.22;;
51862;SDS011;37900;52.996;6.278;2023-08-30T14:02:19;4.30;;;2.05;;
51862;SDS011;37900;52.996;6.278;2023-08-30T14:04:44;2.30;;;1.98;;
51862;SDS011;37900;52.996;6.278;2023-08-30T14:07:10;2.53;;;1.95;;
51862;SDS011;37900;52.996;6.278;2023-08-30T14:09:37;2.92;;;2.30;;
51862;SDS011;37900;52.996;6.278;2023-08-30T14:12:03;2.42;;;2.03;;
51862;SDS011;37900;52.996;6.278;2023-08-30T14:14:29;3.22;;;1.80;;
51862;SDS011;37900;52.996;6.278;2023-08-30T14:16:54;3.85;;;2.15;;
51862;SDS011;37900;52.996;6.278;2023-08-30T14:19:20;3.20;;;1.92;;
51862;SDS011;37900;52.996;6.278;2023-08-30T14:21:46;3.30;;;2.10;;
51862;SDS011;37900;52.996;6.278;2023-08-30T14:24:12;2.90;;;1.98;;
51862;SDS011;37900;52.996;6.278;2023-08-30T14:26:38;2.60;;;2.05;;
51862;SDS011;37900;52.996;6.278;2023-08-30T14:29:04;4.25;;;2.00;;
51862;SDS011;37900;52.996;6.278;2023-08-30T14:31:30;3.20;;;1.80;;
51862;SDS011;37900;52.996;6.278;2023-08-30T14:33:55;2.78;;;1.80;;
51862;SDS011;37900;52.996;6.278;2023-08-30T14:36:24;5.15;;;2.15;;
51862;SDS011;37900;52.996;6.278;2023-08-30T14:38:50;5.95;;;2.40;;
51862;SDS011;37900;52.996;6.278;2023-08-30T14:41:16;2.30;;;1.80;;
51862;SDS011;37900;52.996;6.278;2023-08-30T14:43:42;3.33;;;1.67;;
51862;SDS011;37900;52.996;6.278;2023-08-30T14:46:08;2.70;;;1.85;;
51862;SDS011;37900;52.996;6.278;2023-08-30T14:48:34;3.15;;;1.63;;
51862;SDS011;37900;52.996;6.278;2023-08-30T14:51:00;3.25;;;2.13;;
51862;SDS011;37900;52.996;6.278;2023-08-30T14:53:27;3.17;;;2.00;;
51862;SDS011;37900;52.996;6.278;2023-08-30T14:55:53;3.57;;;2.03;;
51862;SDS011;37900;52.996;6.278;2023-08-30T14:58:21;2.85;;;1.90;;
51862;SDS011;37900;52.996;6.278;2023-08-30T15:00:47;2.53;;;1.85;;